sensor_id;sensor_type;location;lat;lon;timestamp;P1;durP1;ratioP1;P2;durP2;ratioP2
18822;SDS011;9540;51.550;7.980;2023-02-28T00:02:06;6.13;;;5.07;;
18822;SDS011;9540;51.550;7.980;2023-02-28T00:04:33;7.80;;;4.67;;
18822;SDS011;9540;51.550;7.980;2023-02-28T00:07:00;7.03;;;4.87;;
18822;SDS011;9540;51.550;7.980;2023-02-28T00:09:27;8.93;;;5.23;;
18822;SDS011;9540;51.550;7.980;2023-02-28T00:11:54;12.63;;;5.63;;
18822;SDS011;9540;51.550;7.980;2023-02-28T00:14:22;8.93;;;5.50;;
18822;SDS011;9540;51.550;7.980;2023-02-28T00:16:49;10.17;;;5.13;;
18822;SDS011;9540;51.550;7.980;2023-02-28T00:19:16;12.27;;;5.87;;
18822;SDS011;9540;51.550;7.980;2023-02-28T00:21:43;9.97;;;6.10;;
18822;SDS011;9540;51.550;7.980;2023-02-28T00:24:10;8.70;;;5.57;;
18822;SDS011;9540;51.550;7.980;2023-02-28T00:26:37;9.43;;;5.17;;
18822;SDS011;9540;51.550;7.980;2023-02-28T00:29:04;7.93;;;5.40;;
18822;SDS011;9540;51.550;7.980;2023-02-28T00:31:32;8.37;;;5.03;;
18822;SDS011;9540;51.550;7.980;2023-02-28T00:33:59;8.03;;;5.43;;
18822;SDS011;9540;51.550;7.980;2023-02-28T00:36:26;9.23;;;5.07;;
18822;SDS011;9540;51.550;7.980;2023-02-28T00:38:53;7.30;;;5.37;;
18822;SDS011;9540;51.550;7.980;2023-02-28T00:41:20;6.47;;;5.17;;
18822;SDS011;9540;51.550;7.980;2023-02-28T00:43:47;8.23;;;5.03;;
18822;SDS011;9540;51.550;7.980;2023-02-28T00:46:14;8.93;;;5.70;;
18822;SDS011;9540;51.550;7.980;2023-02-28T00:48:42;12.30;;;5.67;;
18822;SDS011;9540;51.550;7.980;2023-02-28T00:51:09;10.37;;;5.40;;
18822;SDS011;9540;51.550;7.980;2023-02-28T00:53:36;11.57;;;5.67;;
18822;SDS011;9540;51.550;7.980;2023-02-28T00:56:03;11.90;;;5.23;;
18822;SDS011;9540;51.550;7.980;2023-02-28T00:58:31;6.30;;;5.07;;
18822;SDS011;9540;51.550;7.980;2023-02-28T01:00:58;8.90;;;5.47;;
18822;SDS011;9540;51.550;7.980;2023-02-28T01:03:24;10.13;;;5.13;;
18822;SDS011;9540;51.550;7.980;2023-02-28T01:05:53;8.97;;;5.43;;
18822;SDS011;9540;51.550;7.980;2023-02-28T01:08:20;9.60;;;5.17;;
18822;SDS011;9540;51.550;7.980;2023-02-28T01:10:47;8.67;;;5.50;;
18822;SDS011;9540;51.550;7.980;2023-02-28T01:13:14;7.40;;;5.50;;
18822;SDS011;9540;51.550;7.980;2023-02-28T01:15:42;10.47;;;4.97;;
18822;SDS011;9540;51.550;7.980;2023-02-28T01:18:12;8.33;;;5.17;;
18822;SDS011;9540;51.550;7.980;2023-02-28T01:20:39;8.10;;;5.33;;
18822;SDS011;9540;51.550;7.980;2023-02-28T01:23:07;9.33;;;5.63;;
18822;SDS011;9540;51.550;7.980;2023-02-28T01:25:34;9.83;;;5.80;;
18822;SDS011;9540;51.550;7.980;2023-02-28T01:28:02;11.80;;;5.83;;
18822;SDS011;9540;51.550;7.980;2023-02-28T01:30:29;18.20;;;6.80;;
18822;SDS011;9540;51.550;7.980;2023-02-28T01:32:57;13.50;;;6.13;;
18822;SDS011;9540;51.550;7.980;2023-02-28T01:35:24;9.47;;;5.63;;
18822;SDS011;9540;51.550;7.980;2023-02-28T01:37:51;8.83;;;5.70;;
18822;SDS011;9540;51.550;7.980;2023-02-28T01:40:19;10.00;;;6.13;;
18822;SDS011;9540;51.550;7.980;2023-02-28T01:42:46;8.17;;;6.10;;
18822;SDS011;9540;51.550;7.980;2023-02-28T01:45:21;14.00;;;6.07;;
18822;SDS011;9540;51.550;7.980;2023-02-28T01:47:50;9.83;;;6.10;;
18822;SDS011;9540;51.550;7.980;2023-02-28T01:50:22;8.43;;;5.90;;
18822;SDS011;9540;51.550;7.980;2023-02-28T01:52:51;12.37;;;5.90;;
18822;SDS011;9540;51.550;7.980;2023-02-28T01:55:24;11.00;;;6.20;;
18822;SDS011;9540;51.550;7.980;2023-02-28T01:57:55;13.00;;;6.93;;
18822;SDS011;9540;51.550;7.980;2023-02-28T02:00:25;19.53;;;7.03;;
18822;SDS011;9540;51.550;7.980;2023-02-28T02:02:54;8.23;;;5.83;;
18822;SDS011;9540;51.550;7.980;2023-02-28T02:05:23;12.73;;;6.00;;
18822;SDS011;9540;51.550;7.980;2023-02-28T02:07:54;6.97;;;4.80;;
18822;SDS011;9540;51.550;7.980;2023-02-28T02:10:24;9.47;;;6.50;;
18822;SDS011;9540;51.550;7.980;2023-02-28T02:13:05;9.73;;;5.57;;
18822;SDS011;9540;51.550;7.980;2023-02-28T02:15:42;12.07;;;6.40;;
18822;SDS011;9540;51.550;7.980;2023-02-28T02:18:18;8.93;;;6.40;;
18822;SDS011;9540;51.550;7.980;2023-02-28T02:21:03;13.90;;;5.97;;
18822;SDS011;9540;51.550;7.980;2023-02-28T02:24:03;10.40;;;5.63;;
18822;SDS011;9540;51.550;7.980;2023-02-28T02:30:00;11.00;;;5.93;;
18822;SDS011;9540;51.550;7.980;2023-02-28T02:32:56;11.33;;;5.40;;
18822;SDS011;9540;51.550;7.980;2023-02-28T02:35:49;11.07;;;6.33;;
18822;SDS011;9540;51.550;7.980;2023-02-28T02:38:23;12.70;;;5.90;;
18822;SDS011;9540;51.550;7.980;2023-02-28T02:40:59;12.53;;;6.20;;
18822;SDS011;9540;51.550;7.980;2023-02-28T02:43:35;8.80;;;5.80;;
18822;SDS011;9540;51.550;7.980;2023-02-28T02:46:08;13.53;;;6.07;;
18822;SDS011;9540;51.550;7.980;2023-02-28T02:48:40;14.67;;;6.27;;
18822;SDS011;9540;51.550;7.980;2023-02-28T02:51:12;12.03;;;6.37;;
18822;SDS011;9540;51.550;7.980;2023-02-28T02:53:42;9.77;;;6.40;;
18822;SDS011;9540;51.550;7.980;2023-02-28T02:56:15;16.77;;;6.80;;
18822;SDS011;9540;51.550;7.980;2023-02-28T02:58:45;12.53;;;7.03;;
18822;SDS011;9540;51.550;7.980;2023-02-28T03:01:16;10.77;;;6.33;;
18822;SDS011;9540;51.550;7.980;2023-02-28T03:03:54;17.13;;;6.67;;
18822;SDS011;9540;51.550;7.980;2023-02-28T03:06:23;11.90;;;6.20;;
18822;SDS011;9540;51.550;7.980;2023-02-28T03:08:50;7.77;;;5.77;;
18822;SDS011;9540;51.550;7.980;2023-02-28T03:11:17;10.00;;;5.83;;
18822;SDS011;9540;51.550;7.980;2023-02-28T03:16:52;11.83;;;6.63;;
18822;SDS011;9540;51.550;7.980;2023-02-28T03:19:34;12.20;;;6.20;;
18822;SDS011;9540;51.550;7.980;2023-02-28T03:22:17;12.60;;;6.27;;
18822;SDS011;9540;51.550;7.980;2023-02-28T03:24:57;8.97;;;5.50;;
18822;SDS011;9540;51.550;7.980;2023-02-28T03:27:29;11.47;;;6.00;;
18822;SDS011;9540;51.550;7.980;2023-02-28T06:31:46;8.90;;;5.97;;
18822;SDS011;9540;51.550;7.980;2023-02-28T06:34:14;10.40;;;6.13;;
18822;SDS011;9540;51.550;7.980;2023-02-28T06:36:41;10.40;;;6.70;;
18822;SDS011;9540;51.550;7.980;2023-02-28T06:39:09;9.57;;;6.77;;
18822;SDS011;9540;51.550;7.980;2023-02-28T06:41:36;11.43;;;6.63;;
18822;SDS011;9540;51.550;7.980;2023-02-28T06:44:05;13.30;;;7.13;;
18822;SDS011;9540;51.550;7.980;2023-02-28T06:46:36;16.83;;;8.03;;
18822;SDS011;9540;51.550;7.980;2023-02-28T06:49:06;18.30;;;7.93;;
18822;SDS011;9540;51.550;7.980;2023-02-28T06:51:35;11.23;;;6.47;;
18822;SDS011;9540;51.550;7.980;2023-02-28T06:54:03;11.27;;;6.93;;
18822;SDS011;9540;51.550;7.980;2023-02-28T06:56:30;13.93;;;7.60;;
18822;SDS011;9540;51.550;7.980;2023-02-28T06:58:58;14.63;;;8.03;;
18822;SDS011;9540;51.550;7.980;2023-02-28T07:01:25;13.60;;;7.20;;
18822;SDS011;9540;51.550;7.980;2023-02-28T07:03:53;17.30;;;7.10;;
18822;SDS011;9540;51.550;7.980;2023-02-28T07:06:22;13.13;;;7.50;;
18822;SDS011;9540;51.550;7.980;2023-02-28T07:08:50;20.53;;;9.53;;
18822;SDS011;9540;51.550;7.980;2023-02-28T07:11:18;16.30;;;8.73;;
18822;SDS011;9540;51.550;7.980;2023-02-28T07:13:47;14.87;;;8.20;;
18822;SDS011;9540;51.550;7.980;2023-02-28T07:16:14;16.53;;;9.13;;
18822;SDS011;9540;51.550;7.980;2023-02-28T07:18:41;22.40;;;9.07;;
18822;SDS011;9540;51.550;7.980;2023-02-28T07:21:09;15.87;;;8.20;;
18822;SDS011;9540;51.550;7.980;2023-02-28T07:23:38;18.93;;;9.13;;
18822;SDS011;9540;51.550;7.980;2023-02-28T07:26:06;20.60;;;8.43;;
18822;SDS011;9540;51.550;7.980;2023-02-28T07:28:38;18.33;;;7.60;;
18822;SDS011;9540;51.550;7.980;2023-02-28T07:31:05;12.17;;;7.00;;
18822;SDS011;9540;51.550;7.980;2023-02-28T07:33:32;12.10;;;6.93;;
18822;SDS011;9540;51.550;7.980;2023-02-28T07:36:00;9.33;;;6.70;;
18822;SDS011;9540;51.550;7.980;2023-02-28T07:38:27;12.37;;;7.03;;
18822;SDS011;9540;51.550;7.980;2023-02-28T07:40:56;17.33;;;7.70;;
18822;SDS011;9540;51.550;7.980;2023-02-28T07:43:23;17.87;;;7.93;;
18822;SDS011;9540;51.550;7.980;2023-02-28T07:45:50;16.17;;;7.63;;
18822;SDS011;9540;51.550;7.980;2023-02-28T07:48:16;13.17;;;7.47;;
18822;SDS011;9540;51.550;7.980;2023-02-28T07:50:43;20.27;;;11.60;;
18822;SDS011;9540;51.550;7.980;2023-02-28T07:53:13;20.33;;;11.80;;
18822;SDS011;9540;51.550;7.980;2023-02-28T07:55:40;33.40;;;12.80;;
18822;SDS011;9540;51.550;7.980;2023-02-28T07:58:08;17.77;;;8.63;;
18822;SDS011;9540;51.550;7.980;2023-02-28T08:00:35;13.30;;;5.90;;
18822;SDS011;9540;51.550;7.980;2023-02-28T08:03:02;9.10;;;4.80;;
18822;SDS011;9540;51.550;7.980;2023-02-28T08:05:29;8.37;;;4.73;;
18822;SDS011;9540;51.550;7.980;2023-02-28T08:07:56;8.63;;;5.17;;
18822;SDS011;9540;51.550;7.980;2023-02-28T08:10:23;5.27;;;3.97;;
18822;SDS011;9540;51.550;7.980;2023-02-28T08:12:50;9.43;;;4.93;;
18822;SDS011;9540;51.550;7.980;2023-02-28T08:15:19;7.83;;;4.63;;
18822;SDS011;9540;51.550;7.980;2023-02-28T08:17:46;7.07;;;3.90;;
18822;SDS011;9540;51.550;7.980;2023-02-28T08:20:12;5.07;;;3.40;;
18822;SDS011;9540;51.550;7.980;2023-02-28T08:22:39;5.73;;;3.67;;
18822;SDS011;9540;51.550;7.980;2023-02-28T08:25:07;5.83;;;3.73;;
18822;SDS011;9540;51.550;7.980;2023-02-28T08:27:34;3.03;;;2.73;;
18822;SDS011;9540;51.550;7.980;2023-02-28T08:30:02;3.87;;;2.53;;
18822;SDS011;9540;51.550;7.980;2023-02-28T08:32:31;3.10;;;2.90;;
18822;SDS011;9540;51.550;7.980;2023-02-28T08:34:58;4.20;;;3.10;;
18822;SDS011;9540;51.550;7.980;2023-02-28T08:37:25;2.70;;;2.50;;
18822;SDS011;9540;51.550;7.980;2023-02-28T08:39:52;4.57;;;2.90;;
18822;SDS011;9540;51.550;7.980;2023-02-28T08:42:19;5.70;;;3.37;;
18822;SDS011;9540;51.550;7.980;2023-02-28T08:44:46;4.67;;;2.97;;
18822;SDS011;9540;51.550;7.980;2023-02-28T08:47:13;8.13;;;3.50;;
18822;SDS011;9540;51.550;7.980;2023-02-28T08:49:42;4.03;;;3.30;;
18822;SDS011;9540;51.550;7.980;2023-02-28T08:52:09;4.27;;;3.13;;
18822;SDS011;9540;51.550;7.980;2023-02-28T08:54:36;6.50;;;3.30;;
18822;SDS011;9540;51.550;7.980;2023-02-28T08:57:03;4.03;;;3.60;;
18822;SDS011;9540;51.550;7.980;2023-02-28T08:59:30;4.83;;;4.33;;
18822;SDS011;9540;51.550;7.980;2023-02-28T09:01:58;4.70;;;3.53;;
18822;SDS011;9540;51.550;7.980;2023-02-28T09:04:25;4.40;;;4.00;;
18822;SDS011;9540;51.550;7.980;2023-02-28T09:06:53;5.53;;;3.60;;
18822;SDS011;9540;51.550;7.980;2023-02-28T09:09:20;6.10;;;4.27;;
18822;SDS011;9540;51.550;7.980;2023-02-28T09:11:47;13.00;;;4.20;;
18822;SDS011;9540;51.550;7.980;2023-02-28T09:14:14;9.27;;;4.83;;
18822;SDS011;9540;51.550;7.980;2023-02-28T09:16:42;5.40;;;4.30;;
18822;SDS011;9540;51.550;7.980;2023-02-28T09:19:10;8.53;;;4.20;;
18822;SDS011;9540;51.550;7.980;2023-02-28T09:21:37;9.30;;;4.40;;
18822;SDS011;9540;51.550;7.980;2023-02-28T09:24:06;7.80;;;3.37;;
18822;SDS011;9540;51.550;7.980;2023-02-28T09:26:33;5.73;;;3.50;;
18822;SDS011;9540;51.550;7.980;2023-02-28T09:29:00;3.57;;;3.27;;
18822;SDS011;9540;51.550;7.980;2023-02-28T09:31:28;5.17;;;3.53;;
18822;SDS011;9540;51.550;7.980;2023-02-28T09:33:56;5.80;;;3.20;;
18822;SDS011;9540;51.550;7.980;2023-02-28T09:36:25;4.10;;;3.22;;
18822;SDS011;9540;51.550;7.980;2023-02-28T09:38:53;3.50;;;3.13;;
18822;SDS011;9540;51.550;7.980;2023-02-28T09:41:22;3.83;;;2.83;;
18822;SDS011;9540;51.550;7.980;2023-02-28T09:43:55;3.28;;;2.60;;
18822;SDS011;9540;51.550;7.980;2023-02-28T09:46:31;4.25;;;3.03;;
18822;SDS011;9540;51.550;7.980;2023-02-28T09:49:02;5.65;;;2.90;;
18822;SDS011;9540;51.550;7.980;2023-02-28T09:51:34;3.65;;;2.90;;
18822;SDS011;9540;51.550;7.980;2023-02-28T09:54:09;4.13;;;2.55;;
18822;SDS011;9540;51.550;7.980;2023-02-28T09:56:45;3.28;;;2.80;;
18822;SDS011;9540;51.550;7.980;2023-02-28T09:59:22;4.20;;;2.60;;
18822;SDS011;9540;51.550;7.980;2023-02-28T10:02:00;6.40;;;3.00;;
18822;SDS011;9540;51.550;7.980;2023-02-28T10:04:37;3.33;;;2.95;;
18822;SDS011;9540;51.550;7.980;2023-02-28T10:07:13;4.43;;;2.97;;
18822;SDS011;9540;51.550;7.980;2023-02-28T10:09:47;3.65;;;2.30;;
18822;SDS011;9540;51.550;7.980;2023-02-28T10:12:18;4.43;;;2.47;;
18822;SDS011;9540;51.550;7.980;2023-02-28T10:14:47;5.30;;;3.42;;
18822;SDS011;9540;51.550;7.980;2023-02-28T10:17:18;2.92;;;2.60;;
18822;SDS011;9540;51.550;7.980;2023-02-28T10:19:50;3.13;;;2.10;;
18822;SDS011;9540;51.550;7.980;2023-02-28T10:22:25;3.03;;;2.30;;
18822;SDS011;9540;51.550;7.980;2023-02-28T10:24:58;4.43;;;2.17;;
18822;SDS011;9540;51.550;7.980;2023-02-28T10:27:30;2.58;;;2.22;;
18822;SDS011;9540;51.550;7.980;2023-02-28T10:30:00;3.22;;;2.03;;
18822;SDS011;9540;51.550;7.980;2023-02-28T10:32:29;1.95;;;1.80;;
18822;SDS011;9540;51.550;7.980;2023-02-28T10:34:59;2.85;;;2.58;;
18822;SDS011;9540;51.550;7.980;2023-02-28T10:37:32;2.60;;;1.98;;
18822;SDS011;9540;51.550;7.980;2023-02-28T10:40:03;2.22;;;1.98;;
18822;SDS011;9540;51.550;7.980;2023-02-28T10:42:32;2.88;;;1.92;;
18822;SDS011;9540;51.550;7.980;2023-02-28T10:45:09;4.23;;;2.40;;
18822;SDS011;9540;51.550;7.980;2023-02-28T10:47:41;3.17;;;2.60;;
18822;SDS011;9540;51.550;7.980;2023-02-28T10:50:26;5.77;;;2.37;;
18822;SDS011;9540;51.550;7.980;2023-02-28T10:52:56;3.23;;;2.30;;
18822;SDS011;9540;51.550;7.980;2023-02-28T10:55:34;2.90;;;2.20;;
18822;SDS011;9540;51.550;7.980;2023-02-28T10:58:03;2.90;;;2.60;;
18822;SDS011;9540;51.550;7.980;2023-02-28T11:00:48;3.20;;;2.90;;
18822;SDS011;9540;51.550;7.980;2023-02-28T11:03:23;6.60;;;3.10;;
18822;SDS011;9540;51.550;7.980;2023-02-28T11:05:52;4.57;;;3.43;;
18822;SDS011;9540;51.550;7.980;2023-02-28T11:08:19;3.47;;;2.57;;
18822;SDS011;9540;51.550;7.980;2023-02-28T11:10:46;3.73;;;2.77;;
18822;SDS011;9540;51.550;7.980;2023-02-28T11:13:19;3.27;;;2.07;;
18822;SDS011;9540;51.550;7.980;2023-02-28T11:15:50;10.40;;;2.90;;
18822;SDS011;9540;51.550;7.980;2023-02-28T11:18:21;4.17;;;2.87;;
18822;SDS011;9540;51.550;7.980;2023-02-28T11:20:51;2.73;;;2.53;;
18822;SDS011;9540;51.550;7.980;2023-02-28T11:23:20;4.13;;;2.87;;
18822;SDS011;9540;51.550;7.980;2023-02-28T11:25:49;2.93;;;2.63;;
18822;SDS011;9540;51.550;7.980;2023-02-28T11:28:27;6.00;;;2.80;;
18822;SDS011;9540;51.550;7.980;2023-02-28T11:31:00;3.27;;;2.70;;
18822;SDS011;9540;51.550;7.980;2023-02-28T11:33:30;3.10;;;2.80;;
18822;SDS011;9540;51.550;7.980;2023-02-28T11:36:08;5.53;;;2.97;;
18822;SDS011;9540;51.550;7.980;2023-02-28T11:38:38;2.67;;;2.47;;
18822;SDS011;9540;51.550;7.980;2023-02-28T11:41:08;6.93;;;3.07;;
18822;SDS011;9540;51.550;7.980;2023-02-28T11:43:50;4.47;;;3.40;;
18822;SDS011;9540;51.550;7.980;2023-02-28T11:46:30;3.00;;;2.80;;
18822;SDS011;9540;51.550;7.980;2023-02-28T11:49:05;3.53;;;3.15;;
18822;SDS011;9540;51.550;7.980;2023-02-28T11:51:45;4.20;;;2.50;;
18822;SDS011;9540;51.550;7.980;2023-02-28T11:54:21;2.83;;;2.60;;
18822;SDS011;9540;51.550;7.980;2023-02-28T11:56:57;4.57;;;2.55;;
18822;SDS011;9540;51.550;7.980;2023-02-28T11:59:32;3.65;;;2.78;;
18822;SDS011;9540;51.550;7.980;2023-02-28T12:02:24;5.65;;;3.45;;
18822;SDS011;9540;51.550;7.980;2023-02-28T12:07:53;3.40;;;3.10;;
18822;SDS011;9540;51.550;7.980;2023-02-28T12:10:28;3.45;;;2.53;;
18822;SDS011;9540;51.550;7.980;2023-02-28T12:13:05;4.10;;;3.08;;
18822;SDS011;9540;51.550;7.980;2023-02-28T12:15:45;10.45;;;4.90;;
18822;SDS011;9540;51.550;7.980;2023-02-28T12:18:49;7.20;;;4.78;;
18822;SDS011;9540;51.550;7.980;2023-02-28T12:21:28;4.25;;;3.10;;
18822;SDS011;9540;51.550;7.980;2023-02-28T12:24:16;3.42;;;2.90;;
18822;SDS011;9540;51.550;7.980;2023-02-28T12:27:05;4.57;;;3.40;;
18822;SDS011;9540;51.550;7.980;2023-02-28T12:29:38;2.80;;;2.60;;
18822;SDS011;9540;51.550;7.980;2023-02-28T12:32:13;2.95;;;2.53;;
18822;SDS011;9540;51.550;7.980;2023-02-28T12:34:43;4.57;;;2.50;;
18822;SDS011;9540;51.550;7.980;2023-02-28T12:37:14;4.03;;;2.65;;
18822;SDS011;9540;51.550;7.980;2023-02-28T12:39:48;6.13;;;4.13;;
18822;SDS011;9540;51.550;7.980;2023-02-28T12:42:23;2.72;;;2.53;;
18822;SDS011;9540;51.550;7.980;2023-02-28T12:44:54;2.72;;;2.50;;
18822;SDS011;9540;51.550;7.980;2023-02-28T12:47:26;3.15;;;2.47;;
18822;SDS011;9540;51.550;7.980;2023-02-28T12:49:54;3.88;;;2.60;;
18822;SDS011;9540;51.550;7.980;2023-02-28T12:52:25;2.55;;;2.33;;
18822;SDS011;9540;51.550;7.980;2023-02-28T12:55:03;4.32;;;2.25;;
18822;SDS011;9540;51.550;7.980;2023-02-28T12:57:42;2.72;;;2.50;;
18822;SDS011;9540;51.550;7.980;2023-02-28T13:00:16;2.95;;;2.67;;
18822;SDS011;9540;51.550;7.980;2023-02-28T13:03:01;3.05;;;2.67;;
18822;SDS011;9540;51.550;7.980;2023-02-28T13:06:03;3.40;;;2.90;;
18822;SDS011;9540;51.550;7.980;2023-02-28T13:08:54;2.88;;;2.65;;
18822;SDS011;9540;51.550;7.980;2023-02-28T13:11:28;3.47;;;2.90;;
18822;SDS011;9540;51.550;7.980;2023-02-28T13:13:57;2.85;;;2.65;;
18822;SDS011;9540;51.550;7.980;2023-02-28T13:16:26;3.33;;;2.80;;
18822;SDS011;9540;51.550;7.980;2023-02-28T13:19:09;3.00;;;2.70;;
18822;SDS011;9540;51.550;7.980;2023-02-28T13:21:41;5.15;;;2.80;;
18822;SDS011;9540;51.550;7.980;2023-02-28T13:24:11;3.55;;;3.03;;
18822;SDS011;9540;51.550;7.980;2023-02-28T13:27:21;3.90;;;3.40;;
18822;SDS011;9540;51.550;7.980;2023-02-28T13:29:50;3.53;;;3.17;;
18822;SDS011;9540;51.550;7.980;2023-02-28T13:32:32;3.78;;;3.47;;
18822;SDS011;9540;51.550;7.980;2023-02-28T13:38:15;6.85;;;3.70;;
18822;SDS011;9540;51.550;7.980;2023-02-28T13:40:50;6.25;;;3.22;;
18822;SDS011;9540;51.550;7.980;2023-02-28T13:43:17;2.93;;;2.63;;
18822;SDS011;9540;51.550;7.980;2023-02-28T13:46:04;3.50;;;3.20;;
18822;SDS011;9540;51.550;7.980;2023-02-28T13:48:34;3.40;;;3.00;;
18822;SDS011;9540;51.550;7.980;2023-02-28T13:54:05;7.33;;;3.93;;
18822;SDS011;9540;51.550;7.980;2023-02-28T13:56:50;5.17;;;3.50;;
18822;SDS011;9540;51.550;7.980;2023-02-28T13:59:28;3.47;;;3.17;;
18822;SDS011;9540;51.550;7.980;2023-02-28T14:02:03;5.77;;;3.00;;
18822;SDS011;9540;51.550;7.980;2023-02-28T14:04:59;3.20;;;2.93;;
18822;SDS011;9540;51.550;7.980;2023-02-28T14:07:28;3.70;;;3.07;;
18822;SDS011;9540;51.550;7.980;2023-02-28T14:10:00;3.20;;;2.90;;
18822;SDS011;9540;51.550;7.980;2023-02-28T14:15:28;4.60;;;2.83;;
18822;SDS011;9540;51.550;7.980;2023-02-28T14:18:05;3.17;;;2.70;;
18822;SDS011;9540;51.550;7.980;2023-02-28T14:20:42;3.07;;;2.77;;
18822;SDS011;9540;51.550;7.980;2023-02-28T14:23:13;3.93;;;3.20;;
18822;SDS011;9540;51.550;7.980;2023-02-28T14:25:53;3.63;;;3.23;;
18822;SDS011;9540;51.550;7.980;2023-02-28T14:28:33;4.50;;;3.00;;
18822;SDS011;9540;51.550;7.980;2023-02-28T14:31:12;3.55;;;2.85;;
18822;SDS011;9540;51.550;7.980;2023-02-28T14:33:46;3.58;;;3.17;;
18822;SDS011;9540;51.550;7.980;2023-02-28T14:36:26;4.80;;;3.28;;
18822;SDS011;9540;51.550;7.980;2023-02-28T14:38:58;3.72;;;3.15;;
18822;SDS011;9540;51.550;7.980;2023-02-28T14:41:30;5.15;;;3.22;;
18822;SDS011;9540;51.550;7.980;2023-02-28T14:44:00;6.32;;;3.30;;
18822;SDS011;9540;51.550;7.980;2023-02-28T14:46:35;3.60;;;3.30;;
18822;SDS011;9540;51.550;7.980;2023-02-28T14:49:04;2.97;;;2.78;;
18822;SDS011;9540;51.550;7.980;2023-02-28T14:51:33;6.05;;;3.10;;
18822;SDS011;9540;51.550;7.980;2023-02-28T14:54:01;6.78;;;3.55;;
18822;SDS011;9540;51.550;7.980;2023-02-28T14:56:33;4.00;;;3.10;;
18822;SDS011;9540;51.550;7.980;2023-02-28T14:59:02;4.40;;;3.40;;
18822;SDS011;9540;51.550;7.980;2023-02-28T15:01:30;8.47;;;3.27;;
18822;SDS011;9540;51.550;7.980;2023-02-28T15:03:59;4.93;;;3.50;;
18822;SDS011;9540;51.550;7.980;2023-02-28T15:06:29;4.13;;;3.40;;
18822;SDS011;9540;51.550;7.980;2023-02-28T15:09:06;4.80;;;2.90;;
18822;SDS011;9540;51.550;7.980;2023-02-28T15:11:36;3.33;;;2.80;;
18822;SDS011;9540;51.550;7.980;2023-02-28T15:14:05;3.30;;;3.00;;
18822;SDS011;9540;51.550;7.980;2023-02-28T15:16:32;5.57;;;3.27;;
18822;SDS011;9540;51.550;7.980;2023-02-28T15:19:04;3.20;;;2.80;;
18822;SDS011;9540;51.550;7.980;2023-02-28T15:21:39;6.93;;;3.40;;
18822;SDS011;9540;51.550;7.980;2023-02-28T15:24:10;4.27;;;3.10;;
18822;SDS011;9540;51.550;7.980;2023-02-28T15:26:43;4.80;;;3.40;;
18822;SDS011;9540;51.550;7.980;2023-02-28T15:29:13;3.03;;;2.73;;
18822;SDS011;9540;51.550;7.980;2023-02-28T15:31:44;3.90;;;3.10;;
18822;SDS011;9540;51.550;7.980;2023-02-28T15:34:17;4.47;;;2.97;;
18822;SDS011;9540;51.550;7.980;2023-02-28T15:36:46;7.67;;;3.30;;
18822;SDS011;9540;51.550;7.980;2023-02-28T15:39:18;8.03;;;3.47;;
18822;SDS011;9540;51.550;7.980;2023-02-28T15:41:47;7.00;;;3.97;;
18822;SDS011;9540;51.550;7.980;2023-02-28T15:44:16;4.00;;;3.60;;
18822;SDS011;9540;51.550;7.980;2023-02-28T15:46:54;4.23;;;3.27;;
18822;SDS011;9540;51.550;7.980;2023-02-28T15:49:24;3.93;;;3.37;;
18822;SDS011;9540;51.550;7.980;2023-02-28T15:51:52;4.80;;;3.80;;
18822;SDS011;9540;51.550;7.980;2023-02-28T15:54:22;3.93;;;3.13;;
18822;SDS011;9540;51.550;7.980;2023-02-28T15:56:54;3.30;;;3.00;;
18822;SDS011;9540;51.550;7.980;2023-02-28T15:59:23;7.07;;;3.37;;
18822;SDS011;9540;51.550;7.980;2023-02-28T16:02:03;3.63;;;2.70;;
18822;SDS011;9540;51.550;7.980;2023-02-28T16:04:55;5.20;;;3.67;;
18822;SDS011;9540;51.550;7.980;2023-02-28T16:07:38;5.37;;;3.63;;
18822;SDS011;9540;51.550;7.980;2023-02-28T16:10:08;4.60;;;3.47;;
18822;SDS011;9540;51.550;7.980;2023-02-28T16:12:38;3.77;;;3.20;;
18822;SDS011;9540;51.550;7.980;2023-02-28T16:15:07;4.83;;;3.60;;
18822;SDS011;9540;51.550;7.980;2023-02-28T16:17:43;5.90;;;3.37;;
18822;SDS011;9540;51.550;7.980;2023-02-28T16:20:12;3.77;;;3.30;;
18822;SDS011;9540;51.550;7.980;2023-02-28T16:22:40;5.33;;;3.67;;
18822;SDS011;9540;51.550;7.980;2023-02-28T16:25:08;3.53;;;3.03;;
18822;SDS011;9540;51.550;7.980;2023-02-28T16:27:39;4.93;;;3.33;;
18822;SDS011;9540;51.550;7.980;2023-02-28T16:30:09;7.30;;;3.87;;
18822;SDS011;9540;51.550;7.980;2023-02-28T16:32:44;5.00;;;3.67;;
18822;SDS011;9540;51.550;7.980;2023-02-28T16:35:11;4.67;;;3.23;;
18822;SDS011;9540;51.550;7.980;2023-02-28T16:37:39;8.30;;;4.20;;
18822;SDS011;9540;51.550;7.980;2023-02-28T16:40:06;5.07;;;4.00;;
18822;SDS011;9540;51.550;7.980;2023-02-28T16:42:35;6.13;;;3.73;;
18822;SDS011;9540;51.550;7.980;2023-02-28T16:45:08;7.93;;;4.97;;
18822;SDS011;9540;51.550;7.980;2023-02-28T16:47:43;6.20;;;4.30;;
18822;SDS011;9540;51.550;7.980;2023-02-28T16:50:12;6.43;;;4.70;;
18822;SDS011;9540;51.550;7.980;2023-02-28T16:52:40;22.33;;;9.40;;
18822;SDS011;9540;51.550;7.980;2023-02-28T16:55:08;13.37;;;7.43;;
18822;SDS011;9540;51.550;7.980;2023-02-28T16:57:35;9.47;;;6.30;;
18822;SDS011;9540;51.550;7.980;2023-02-28T17:00:02;11.47;;;5.90;;
18822;SDS011;9540;51.550;7.980;2023-02-28T17:02:32;8.17;;;4.60;;
18822;SDS011;9540;51.550;7.980;2023-02-28T17:04:59;3.47;;;3.17;;
18822;SDS011;9540;51.550;7.980;2023-02-28T17:07:27;7.67;;;4.27;;
18822;SDS011;9540;51.550;7.980;2023-02-28T17:09:54;4.33;;;3.93;;
18822;SDS011;9540;51.550;7.980;2023-02-28T17:12:20;5.53;;;3.50;;
18822;SDS011;9540;51.550;7.980;2023-02-28T17:14:47;7.90;;;5.43;;
18822;SDS011;9540;51.550;7.980;2023-02-28T17:17:15;16.10;;;5.60;;
18822;SDS011;9540;51.550;7.980;2023-02-28T17:19:45;8.33;;;5.00;;
18822;SDS011;9540;51.550;7.980;2023-02-28T17:22:13;12.07;;;5.23;;
18822;SDS011;9540;51.550;7.980;2023-02-28T17:24:40;11.90;;;5.27;;
18822;SDS011;9540;51.550;7.980;2023-02-28T17:27:08;9.63;;;5.50;;
18822;SDS011;9540;51.550;7.980;2023-02-28T17:29:37;7.57;;;4.60;;
18822;SDS011;9540;51.550;7.980;2023-02-28T17:32:04;8.73;;;4.90;;
18822;SDS011;9540;51.550;7.980;2023-02-28T17:34:31;8.17;;;5.23;;
18822;SDS011;9540;51.550;7.980;2023-02-28T17:36:59;7.07;;;4.83;;
18822;SDS011;9540;51.550;7.980;2023-02-28T17:39:26;6.23;;;4.60;;
18822;SDS011;9540;51.550;7.980;2023-02-28T17:41:54;10.23;;;4.77;;
18822;SDS011;9540;51.550;7.980;2023-02-28T17:44:22;4.33;;;3.80;;
18822;SDS011;9540;51.550;7.980;2023-02-28T17:46:50;5.40;;;4.23;;
18822;SDS011;9540;51.550;7.980;2023-02-28T17:49:18;5.27;;;3.70;;
18822;SDS011;9540;51.550;7.980;2023-02-28T17:51:46;6.03;;;3.97;;
18822;SDS011;9540;51.550;7.980;2023-02-28T17:54:15;10.47;;;4.90;;
18822;SDS011;9540;51.550;7.980;2023-02-28T17:56:42;9.17;;;4.70;;
18822;SDS011;9540;51.550;7.980;2023-02-28T17:59:09;7.43;;;4.90;;
18822;SDS011;9540;51.550;7.980;2023-02-28T18:01:37;5.20;;;4.10;;
18822;SDS011;9540;51.550;7.980;2023-02-28T18:04:04;5.43;;;4.27;;
18822;SDS011;9540;51.550;7.980;2023-02-28T18:06:33;7.20;;;4.90;;
18822;SDS011;9540;51.550;7.980;2023-02-28T18:09:16;8.27;;;4.83;;
18822;SDS011;9540;51.550;7.980;2023-02-28T18:11:46;8.60;;;5.63;;
18822;SDS011;9540;51.550;7.980;2023-02-28T18:14:15;9.37;;;5.40;;
18822;SDS011;9540;51.550;7.980;2023-02-28T18:16:43;12.37;;;6.20;;
18822;SDS011;9540;51.550;7.980;2023-02-28T18:19:10;6.80;;;5.00;;
18822;SDS011;9540;51.550;7.980;2023-02-28T18:21:41;10.40;;;6.33;;
18822;SDS011;9540;51.550;7.980;2023-02-28T18:24:08;11.23;;;5.63;;
18822;SDS011;9540;51.550;7.980;2023-02-28T18:26:37;12.40;;;5.80;;
18822;SDS011;9540;51.550;7.980;2023-02-28T18:29:05;7.53;;;5.27;;
18822;SDS011;9540;51.550;7.980;2023-02-28T18:31:33;8.10;;;5.90;;
18822;SDS011;9540;51.550;7.980;2023-02-28T18:34:00;9.23;;;6.13;;
18822;SDS011;9540;51.550;7.980;2023-02-28T18:36:27;8.73;;;6.50;;
18822;SDS011;9540;51.550;7.980;2023-02-28T18:38:54;11.20;;;6.23;;
18822;SDS011;9540;51.550;7.980;2023-02-28T18:41:23;9.43;;;6.30;;
18822;SDS011;9540;51.550;7.980;2023-02-28T18:43:51;9.17;;;6.17;;